Time;durP1;ratioP1;P1;durP2;ratioP2;P2;SDS_P1;SDS_P2;PMS_P1;PMS_P2;Temp;Humidity;BMP_temperature;BMP_pressure;BME280_temperature;BME280_humidity;BME280_pressure;Samples;Min_cycle;Max_cycle;Signal;HPM_P1;HPM_P2
2023/10/29 00:00:09;;;;;;;3.37;1.30;;;12.60;1.00;;;;;;4992641;28;20495;-68
2023/10/29 00:02:35;;;;;;;4.77;1.80;;;12.60;1.00;;;;;;4993589;28;20176;-69
2023/10/29 00:05:00;;;;;;;2.30;1.43;;;12.70;1.00;;;;;;4992145;28;20570;-69
2023/10/29 00:07:26;;;;;;;4.23;2.27;;;12.70;1.00;;;;;;4992050;28;20223;-70
2023/10/29 00:09:51;;;;;;;2.47;1.73;;;12.80;1.00;;;;;;4992975;28;20199;-68
2023/10/29 00:12:17;;;;;;;3.43;1.93;;;12.80;1.00;;;;;;4993076;28;20552;-69
2023/10/29 00:14:43;;;;;;;13.13;1.80;;;12.80;1.00;;;;;;4991945;28;20553;-69
2023/10/29 00:17:08;;;;;;;3.40;1.63;;;12.80;1.00;;;;;;4993129;28;20254;-68
2023/10/29 00:19:34;;;;;;;6.27;1.80;;;12.80;1.00;;;;;;4993035;28;20645;-68
2023/10/29 00:22:00;;;;;;;2.23;1.53;;;12.90;1.00;;;;;;4993542;28;20204;-68
2023/10/29 00:24:25;;;;;;;2.37;1.30;;;12.80;1.00;;;;;;4993135;28;20183;-68
2023/10/29 00:26:51;;;;;;;2.93;1.33;;;12.80;1.00;;;;;;4991763;28;20235;-68
2023/10/29 00:29:16;;;;;;;2.83;1.50;;;12.90;1.00;;;;;;4992794;28;20175;-67
2023/10/29 00:31:42;;;;;;;3.00;1.63;;;12.90;1.00;;;;;;4991642;28;20681;-69
2023/10/29 00:34:08;;;;;;;2.80;1.60;;;12.90;1.00;;;;;;4992099;28;20177;-68
2023/10/29 00:36:33;;;;;;;2.73;1.60;;;13.00;1.00;;;;;;4992896;28;20178;-68
2023/10/29 00:38:59;;;;;;;2.20;1.23;;;13.00;1.00;;;;;;4992762;28;20675;-68
2023/10/29 00:41:26;;;;;;;2.17;1.20;;;13.00;1.00;;;;;;4991282;28;20494;-69
2023/10/29 00:43:51;;;;;;;2.00;1.33;;;13.00;1.00;;;;;;4991524;28;20418;-69
2023/10/29 00:46:17;;;;;;;2.10;1.20;;;13.10;1.00;;;;;;4992740;28;20761;-70
2023/10/29 00:48:43;;;;;;;3.50;1.70;;;13.10;1.00;;;;;;4992564;28;20575;-69
2023/10/29 00:51:10;;;;;;;4.47;2.10;;;13.10;1.00;;;;;;4992310;28;20532;-70
2023/10/29 00:53:36;;;;;;;3.53;2.03;;;13.10;1.00;;;;;;4991251;28;20412;-69
2023/10/29 00:56:02;;;;;;;3.20;1.80;;;13.00;1.00;;;;;;4992437;28;20466;-69
2023/10/29 00:58:27;;;;;;;2.60;1.83;;;13.00;1.00;;;;;;4992428;28;20224;-70
2023/10/29 01:00:53;;;;;;;2.23;1.40;;;13.00;1.00;;;;;;4992232;28;21004;-69
2023/10/29 01:03:19;;;;;;;4.20;1.80;;;13.00;1.00;;;;;;4992532;28;20183;-68
2023/10/29 01:05:46;;;;;;;2.90;1.40;;;13.00;1.00;;;;;;4992461;28;20173;-69
2023/10/29 01:08:12;;;;;;;2.97;1.20;;;13.00;1.00;;;;;;4991565;28;20476;-70
2023/10/29 01:10:38;;;;;;;2.80;1.80;;;13.00;1.00;;;;;;4991501;28;20518;-70
2023/10/29 01:13:04;;;;;;;2.53;1.30;;;13.00;1.00;;;;;;4990356;28;20467;-70
2023/10/29 01:15:30;;;;;;;1.70;1.30;;;13.00;1.00;;;;;;4992645;28;20422;-70
2023/10/29 01:17:56;;;;;;;2.20;1.67;;;13.10;1.00;;;;;;4991257;28;20446;-70
2023/10/29 01:20:21;;;;;;;2.03;1.30;;;13.10;1.00;;;;;;4991143;28;20272;-70
2023/10/29 01:22:47;;;;;;;2.73;1.70;;;13.10;1.00;;;;;;4992352;28;20188;-70
2023/10/29 01:25:13;;;;;;;3.40;1.73;;;13.10;1.00;;;;;;4992417;28;20656;-70
2023/10/29 01:27:39;;;;;;;2.30;1.60;;;13.10;1.00;;;;;;4991169;28;20501;-70
2023/10/29 01:30:05;;;;;;;1.97;1.40;;;13.10;1.00;;;;;;4990849;28;20254;-70
2023/10/29 01:32:32;;;;;;;3.50;1.90;;;13.10;1.00;;;;;;4992512;28;20463;-70
2023/10/29 01:34:58;;;;;;;2.27;1.53;;;13.20;1.00;;;;;;4992635;28;20860;-70
2023/10/29 01:37:24;;;;;;;3.73;1.53;;;13.20;1.00;;;;;;4992385;28;20437;-70
2023/10/29 01:39:49;;;;;;;2.37;1.60;;;13.20;1.00;;;;;;4990782;28;20199;-69
2023/10/29 01:42:15;;;;;;;2.77;1.63;;;13.20;1.00;;;;;;4991029;28;20507;-69
2023/10/29 01:44:41;;;;;;;2.60;1.60;;;13.10;1.00;;;;;;5007293;28;20194;-70
2023/10/29 01:47:06;;;;;;;2.97;1.83;;;13.00;1.00;;;;;;4992467;28;20211;-70
2023/10/29 01:49:33;;;;;;;2.53;1.43;;;12.90;1.00;;;;;;4991968;28;20185;-69
2023/10/29 01:51:59;;;;;;;2.17;1.63;;;12.80;1.00;;;;;;4992212;28;20200;-70
2023/10/29 01:54:24;;;;;;;2.23;1.40;;;12.70;1.00;;;;;;4992469;28;20482;-69
2023/10/29 01:56:50;;;;;;;3.67;2.00;;;12.70;1.00;;;;;;4990758;28;20668;-70
2023/10/29 01:59:15;;;;;;;2.33;1.40;;;12.60;1.00;;;;;;4992144;28;20182;-69
2023/10/29 02:01:42;;;;;;;4.47;1.40;;;12.50;1.00;;;;;;4990473;28;20178;-70
2023/10/29 02:04:11;;;;;;;3.10;1.23;;;12.40;1.00;;;;;;4990674;28;20272;-69
2023/10/29 02:06:39;;;;;;;3.00;1.83;;;12.40;1.00;;;;;;4991824;28;20454;-70
2023/10/29 02:09:09;;;;;;;3.43;1.33;;;12.30;1.00;;;;;;4991788;28;20435;-69
2023/10/29 02:11:39;;;;;;;3.77;1.60;;;12.40;1.00;;;;;;4990387;28;20553;-70
2023/10/29 02:14:08;;;;;;;3.50;1.53;;;12.30;1.00;;;;;;4991851;28;20419;-70
2023/10/29 02:16:34;;;;;;;2.87;1.50;;;12.30;1.00;;;;;;4991750;28;20454;-70
2023/10/29 02:18:59;;;;;;;3.30;1.70;;;12.30;1.00;;;;;;4991973;28;20493;-70
2023/10/29 02:21:25;;;;;;;1.60;1.03;;;12.30;1.00;;;;;;4990436;28;20388;-70
2023/10/29 02:23:54;;;;;;;3.40;1.40;;;12.30;1.00;;;;;;4993263;28;20221;-70
2023/10/29 02:26:21;;;;;;;4.27;1.43;;;12.30;1.00;;;;;;4995607;28;20328;-70
2023/10/29 02:28:46;;;;;;;2.73;1.43;;;12.40;1.00;;;;;;4994173;28;20822;-70
2023/10/29 02:31:18;;;;;;;2.50;1.33;;;12.40;1.00;;;;;;4994092;28;20487;-69
2023/10/29 02:33:44;;;;;;;1.90;1.33;;;12.40;1.00;;;;;;4995517;28;20212;-72
2023/10/29 02:36:10;;;;;;;2.30;1.50;;;12.50;1.00;;;;;;4996294;28;21088;-70
2023/10/29 02:38:40;;;;;;;2.00;1.30;;;12.40;1.00;;;;;;4994260;28;20208;-69
2023/10/29 02:41:06;;;;;;;3.13;1.60;;;12.40;1.00;;;;;;4994398;28;20767;-71
2023/10/29 02:43:32;;;;;;;2.10;1.60;;;12.30;1.00;;;;;;4996215;28;20890;-71
2023/10/29 02:45:58;;;;;;;2.90;1.60;;;12.20;1.00;;;;;;4995973;28;20456;-70
2023/10/29 02:48:24;;;;;;;1.90;1.30;;;12.20;1.00;;;;;;4995231;28;20467;-70
2023/10/29 02:50:51;;;;;;;1.93;1.30;;;12.30;1.00;;;;;;4994654;28;20193;-70
2023/10/29 02:53:17;;;;;;;2.93;1.70;;;12.30;1.00;;;;;;4995217;28;20496;-70
2023/10/29 02:55:43;;;;;;;1.80;1.30;;;12.30;1.00;;;;;;4995129;28;20420;-70
2023/10/29 02:58:08;;;;;;;2.10;1.33;;;12.30;1.00;;;;;;4995015;28;20473;-70
2023/10/29 03:00:34;;;;;;;2.20;1.40;;;12.20;1.00;;;;;;4994753;28;20183;-69
2023/10/29 03:03:00;;;;;;;2.73;1.70;;;12.20;1.00;;;;;;4993867;28;20192;-71
2023/10/29 03:05:25;;;;;;;1.70;1.10;;;12.10;1.00;;;;;;4995041;28;20182;-70
2023/10/29 03:07:51;;;;;;;2.20;1.40;;;12.00;1.00;;;;;;4993501;28;20271;-70
2023/10/29 03:10:16;;;;;;;2.93;1.37;;;11.90;1.00;;;;;;4993388;28;20185;-70
2023/10/29 03:12:42;;;;;;;2.20;1.33;;;11.80;1.00;;;;;;4994434;28;20687;-71
2023/10/29 03:15:08;;;;;;;2.07;1.37;;;11.70;1.00;;;;;;4994640;28;20396;-70
2023/10/29 03:17:34;;;;;;;3.80;1.80;;;11.70;1.00;;;;;;4993339;28;20527;-70
2023/10/29 03:19:59;;;;;;;3.33;1.60;;;11.60;1.00;;;;;;4992996;28;20192;-71
2023/10/29 03:22:25;;;;;;;1.90;1.40;;;11.50;1.00;;;;;;4994268;28;20711;-70
2023/10/29 03:24:51;;;;;;;2.63;1.40;;;11.40;1.00;;;;;;4994300;28;20187;-69
2023/10/29 03:27:16;;;;;;;3.70;1.67;;;11.40;1.00;;;;;;4994284;28;20565;-70
2023/10/29 03:29:45;;;;;;;2.20;1.30;;;11.30;1.00;;;;;;4992731;28;20331;-70
2023/10/29 03:32:13;;;;;;;1.80;1.10;;;11.40;1.00;;;;;;4994280;28;20291;-70
2023/10/29 03:34:39;;;;;;;4.80;1.50;;;11.30;1.00;;;;;;4993521;28;20420;-69
2023/10/29 03:37:05;;;;;;;2.60;1.03;;;11.30;1.00;;;;;;4993851;28;20432;-69
2023/10/29 03:39:31;;;;;;;2.53;1.30;;;11.30;1.00;;;;;;4994001;28;20239;-70
2023/10/29 03:41:56;;;;;;;1.77;0.97;;;11.30;1.00;;;;;;4994500;28;20213;-70
2023/10/29 03:44:22;;;;;;;2.57;1.40;;;11.30;1.00;;;;;;4994473;28;20507;-71
2023/10/29 03:46:51;;;;;;;2.40;1.10;;;11.30;1.00;;;;;;4994060;28;20200;-70
2023/10/29 03:49:20;;;;;;;4.93;1.60;;;11.30;1.00;;;;;;4992796;28;20176;-70
2023/10/29 03:51:47;;;;;;;3.00;1.63;;;11.30;1.00;;;;;;4992505;28;21024;-70
2023/10/29 03:54:13;;;;;;;3.10;1.87;;;11.30;1.00;;;;;;4994169;28;20430;-69
2023/10/29 03:56:39;;;;;;;3.50;1.53;;;11.40;1.00;;;;;;4992667;28;20458;-69
2023/10/29 03:59:05;;;;;;;5.73;1.73;;;11.40;1.00;;;;;;4993935;28;20889;-70
2023/10/29 04:01:32;;;;;;;2.57;1.67;;;11.30;1.00;;;;;;4993725;28;20224;-70
2023/10/29 04:03:58;;;;;;;2.60;1.83;;;11.20;1.00;;;;;;4993681;28;20417;-70
2023/10/29 04:06:24;;;;;;;3.30;1.63;;;11.10;1.00;;;;;;4993761;28;20726;-70
2023/10/29 04:08:49;;;;;;;3.10;1.23;;;11.00;1.00;;;;;;4993655;28;20456;-69
2023/10/29 04:11:15;;;;;;;2.40;1.60;;;11.00;1.00;;;;;;4993835;28;20419;-70
2023/10/29 04:13:40;;;;;;;2.43;1.40;;;11.10;1.00;;;;;;4993710;28;20177;-70
2023/10/29 04:16:06;;;;;;;2.13;1.20;;;11.20;1.00;;;;;;4993564;28;20185;-70
2023/10/29 04:18:33;;;;;;;3.40;1.30;;;11.30;1.00;;;;;;4992123;28;20204;-70
2023/10/29 04:21:02;;;;;;;2.83;1.20;;;11.20;1.00;;;;;;4993300;28;20263;-70
2023/10/29 04:23:28;;;;;;;2.87;1.37;;;11.30;1.00;;;;;;4993530;28;20543;-70
2023/10/29 04:25:53;;;;;;;2.20;1.43;;;11.40;1.00;;;;;;4993424;28;20503;-70
2023/10/29 04:28:19;;;;;;;2.60;1.77;;;11.40;1.00;;;;;;4992234;28;20730;-70
2023/10/29 04:30:45;;;;;;;3.07;1.40;;;11.50;1.00;;;;;;4991932;28;20235;-70
2023/10/29 04:33:10;;;;;;;1.60;1.00;;;11.70;1.00;;;;;;4992959;28;20206;-70
2023/10/29 04:35:36;;;;;;;1.90;1.37;;;11.90;1.00;;;;;;5008118;28;20558;-70
2023/10/29 04:38:01;;;;;;;2.20;1.50;;;12.10;1.00;;;;;;4991920;28;20209;-70
2023/10/29 04:40:27;;;;;;;3.27;1.70;;;12.20;1.00;;;;;;4993057;28;20173;-70
2023/10/29 04:42:52;;;;;;;2.53;1.60;;;12.30;1.00;;;;;;4993089;28;20671;-70
2023/10/29 04:45:18;;;;;;;2.00;1.57;;;12.40;1.00;;;;;;4992385;28;20188;-69
2023/10/29 04:47:44;;;;;;;2.03;1.50;;;12.40;1.00;;;;;;4993317;28;20207;-70
2023/10/29 04:50:09;;;;;;;3.50;1.70;;;12.30;1.00;;;;;;4994085;28;20192;-70
2023/10/29 04:52:35;;;;;;;2.20;1.40;;;12.30;1.00;;;;;;5009183;28;20471;-70
2023/10/29 04:55:01;;;;;;;3.20;1.40;;;12.40;1.00;;;;;;4993427;28;20180;-70
2023/10/29 04:57:29;;;;;;;2.77;1.70;;;12.60;1.00;;;;;;4992188;28;20214;-70
2023/10/29 04:59:55;;;;;;;3.87;1.60;;;12.80;1.00;;;;;;4992123;28;20174;-70
2023/10/29 05:02:22;;;;;;;3.60;1.90;;;12.90;1.00;;;;;;4993797;28;20943;-70
2023/10/29 05:04:51;;;;;;;2.20;1.70;;;13.00;1.00;;;;;;4993821;28;20184;-70
2023/10/29 05:07:17;;;;;;;2.27;1.50;;;13.10;1.00;;;;;;4993191;28;20471;-70
2023/10/29 05:09:43;;;;;;;2.13;1.70;;;13.20;1.00;;;;;;4993255;28;20502;-71
2023/10/29 05:12:09;;;;;;;2.30;2.07;;;13.30;1.00;;;;;;4994874;28;20494;-70
2023/10/29 05:14:34;;;;;;;2.07;1.60;;;13.40;1.00;;;;;;4993563;28;20720;-69
2023/10/29 05:17:00;;;;;;;2.13;1.90;;;13.40;1.00;;;;;;4993356;28;20266;-70
2023/10/29 05:19:26;;;;;;;2.30;1.87;;;13.60;1.00;;;;;;4994617;28;20202;-70
2023/10/29 05:21:51;;;;;;;2.00;1.73;;;13.70;1.00;;;;;;4994700;28;20427;-70
2023/10/29 05:24:17;;;;;;;2.30;2.03;;;13.70;1.00;;;;;;4995037;28;20642;-69
2023/10/29 05:26:43;;;;;;;2.60;1.73;;;13.80;1.00;;;;;;4993205;28;20191;-69
2023/10/29 05:29:09;;;;;;;2.43;1.90;;;13.90;1.00;;;;;;4993389;28;20195;-70
2023/10/29 05:31:34;;;;;;;2.30;2.10;;;13.90;1.00;;;;;;4994774;28;20458;-69
2023/10/29 05:34:01;;;;;;;2.60;2.03;;;14.00;1.00;;;;;;4994845;28;20407;-69
2023/10/29 05:36:27;;;;;;;3.20;1.77;;;14.00;1.00;;;;;;4993907;28;20188;-70
2023/10/29 05:38:52;;;;;;;2.23;2.03;;;14.00;1.00;;;;;;4995365;28;20420;-71
2023/10/29 05:41:18;;;;;;;2.70;1.87;;;13.90;1.00;;;;;;4993911;28;20646;-70
2023/10/29 05:43:43;;;;;;;2.57;1.80;;;13.90;1.00;;;;;;4994668;28;20253;-70
2023/10/29 05:46:16;;;;;;;3.00;1.80;;;13.90;1.00;;;;;;4993452;28;20650;-70
2023/10/29 05:48:41;;;;;;;2.20;1.70;;;13.90;1.00;;;;;;4994704;28;20211;-70
2023/10/29 05:51:12;;;;;;;2.13;1.70;;;14.00;1.00;;;;;;4994793;28;20884;-70
2023/10/29 05:53:38;;;;;;;2.73;2.10;;;14.00;1.00;;;;;;4996450;28;20243;-70
2023/10/29 05:56:05;;;;;;;2.00;1.80;;;14.00;1.00;;;;;;4995306;28;20423;-70
2023/10/29 05:58:31;;;;;;;2.33;1.93;;;14.00;1.00;;;;;;4995637;28;20435;-70
2023/10/29 06:00:56;;;;;;;3.97;1.83;;;14.00;1.00;;;;;;4999515;28;20857;-70
2023/10/29 06:03:22;;;;;;;4.17;2.10;;;14.00;1.00;;;;;;4999293;28;20190;-69
2023/10/29 06:05:47;;;;;;;1.97;1.70;;;14.00;1.00;;;;;;4997281;28;20668;-69
2023/10/29 06:08:13;;;;;;;2.30;1.97;;;14.00;1.00;;;;;;4997389;28;20216;-69
2023/10/29 06:10:38;;;;;;;3.00;1.97;;;14.00;1.00;;;;;;4997546;28;20184;-70
2023/10/29 06:13:04;;;;;;;2.30;1.80;;;14.00;1.00;;;;;;4998417;28;20209;-69
2023/10/29 06:15:30;;;;;;;2.30;1.90;;;14.10;1.00;;;;;;4999368;28;20638;-69
2023/10/29 06:17:55;;;;;;;2.50;1.70;;;14.00;1.00;;;;;;4999127;28;20278;-68
2023/10/29 06:20:22;;;;;;;2.00;1.50;;;14.00;1.00;;;;;;4997183;28;20189;-70
2023/10/29 06:22:48;;;;;;;2.87;1.80;;;14.00;1.00;;;;;;4997015;28;20535;-69
2023/10/29 06:25:15;;;;;;;2.63;1.80;;;14.10;1.00;;;;;;4997060;28;20969;-69
2023/10/29 06:27:40;;;;;;;1.70;1.53;;;14.10;1.00;;;;;;4998075;28;20479;-69
2023/10/29 06:30:07;;;;;;;2.30;1.60;;;14.10;1.00;;;;;;4999989;28;20423;-70
2023/10/29 06:32:33;;;;;;;2.43;1.70;;;14.20;1.00;;;;;;4997775;28;20243;-70
2023/10/29 06:34:58;;;;;;;2.67;2.07;;;14.20;1.00;;;;;;4999699;28;20412;-70
2023/10/29 06:37:24;;;;;;;2.37;1.67;;;14.30;1.00;;;;;;4998346;28;20197;-70
2023/10/29 06:39:49;;;;;;;2.70;1.80;;;14.40;1.00;;;;;;4998213;28;20668;-68
2023/10/29 06:42:15;;;;;;;2.47;1.93;;;14.50;1.00;;;;;;4998975;28;20187;-70
2023/10/29 06:44:41;;;;;;;5.10;3.40;;;14.50;1.00;;;;;;4998860;28;20615;-70
2023/10/29 06:47:07;;;;;;;4.10;2.83;;;14.50;1.00;;;;;;4997283;28;20246;-69
2023/10/29 06:49:33;;;;;;;5.57;3.70;;;14.00;1.00;;;;;;4995967;28;20242;-71
2023/10/29 06:51:58;;;;;;;4.43;3.30;;;13.50;1.00;;;;;;4995762;28;20470;-70
2023/10/29 06:54:24;;;;;;;4.30;3.50;;;13.20;1.00;;;;;;4995719;28;20173;-70
2023/10/29 06:56:50;;;;;;;8.90;3.10;;;12.70;1.00;;;;;;4994059;28;20679;-70
2023/10/29 06:59:15;;;;;;;5.30;2.70;;;12.60;1.00;;;;;;4994850;28;20449;-70
2023/10/29 07:01:42;;;;;;;4.60;2.70;;;12.50;1.00;;;;;;4994489;28;20255;-70
2023/10/29 07:04:08;;;;;;;2.80;1.80;;;12.40;1.00;;;;;;4996277;28;20172;-70
2023/10/29 07:06:33;;;;;;;7.43;2.53;;;12.30;1.00;;;;;;4996382;28;21049;-70
2023/10/29 07:09:00;;;;;;;4.33;2.60;;;12.30;1.00;;;;;;5006182;23;20236;-68
2023/10/29 07:11:28;;;;;;;4.23;2.37;;;12.30;1.00;;;;;;4973424;28;20731;-68
2023/10/29 07:13:53;;;;;;;3.40;2.40;;;12.20;1.00;;;;;;4975037;28;20515;-68
2023/10/29 07:16:19;;;;;;;3.60;2.57;;;12.20;1.00;;;;;;4974988;28;20958;-68
2023/10/29 07:18:44;;;;;;;5.33;2.50;;;12.20;1.00;;;;;;4974822;28;20240;-68
2023/10/29 07:21:10;;;;;;;7.03;2.30;;;12.30;1.00;;;;;;4974724;28;20630;-68
2023/10/29 07:23:35;;;;;;;2.83;1.70;;;12.40;1.00;;;;;;4989793;28;20650;-68
2023/10/29 07:26:01;;;;;;;3.23;2.37;;;12.40;1.00;;;;;;4974729;28;20186;-68
2023/10/29 07:28:28;;;;;;;2.53;1.83;;;12.40;1.00;;;;;;4989848;28;20197;-68
2023/10/29 07:30:55;;;;;;;3.40;2.33;;;12.50;1.00;;;;;;4989488;28;20567;-68
2023/10/29 07:33:21;;;;;;;3.43;1.73;;;12.50;1.00;;;;;;4974506;28;20628;-68
2023/10/29 07:35:46;;;;;;;5.13;2.80;;;12.70;1.00;;;;;;4989689;28;20930;-68
2023/10/29 07:38:12;;;;;;;4.77;2.53;;;12.70;1.00;;;;;;4974589;28;20193;-68
2023/10/29 07:40:38;;;;;;;3.00;1.83;;;12.70;1.00;;;;;;4974275;28;20211;-69
2023/10/29 07:43:04;;;;;;;5.60;2.87;;;12.70;1.00;;;;;;4974451;28;20182;-68
2023/10/29 07:45:30;;;;;;;3.23;2.20;;;12.80;1.00;;;;;;4974485;28;20496;-69
2023/10/29 07:47:56;;;;;;;4.83;2.60;;;12.70;1.00;;;;;;4974307;28;20217;-68
2023/10/29 07:50:21;;;;;;;3.83;2.13;;;12.80;1.00;;;;;;4973922;28;20455;-69
2023/10/29 07:52:47;;;;;;;4.43;2.60;;;12.80;1.00;;;;;;4974296;28;20698;-69
2023/10/29 07:55:13;;;;;;;4.00;2.33;;;12.90;1.00;;;;;;4989107;28;20175;-69
2023/10/29 07:57:38;;;;;;;4.07;1.83;;;12.70;1.00;;;;;;4974382;28;20446;-68
2023/10/29 08:00:13;;;;;;;2.43;1.90;;;12.80;1.00;;;;;;4973904;28;20173;-68
2023/10/29 08:02:39;;;;;;;3.60;2.13;;;12.90;1.00;;;;;;4974131;28;20182;-69
2023/10/29 08:05:04;;;;;;;5.10;3.53;;;13.00;1.00;;;;;;4974112;28;20416;-68
2023/10/29 08:07:30;;;;;;;3.90;3.30;;;13.00;1.00;;;;;;4973975;28;20452;-69
2023/10/29 08:09:56;;;;;;;6.90;3.73;;;13.20;1.00;;;;;;4973647;28;20246;-69
2023/10/29 08:12:22;;;;;;;3.73;3.30;;;13.40;1.00;;;;;;4974208;28;20572;-69
2023/10/29 08:14:48;;;;;;;3.70;3.00;;;13.60;1.00;;;;;;4973874;28;20182;-69
2023/10/29 08:17:17;;;;;;;7.20;3.40;;;13.70;1.00;;;;;;4973732;28;20435;-68
2023/10/29 08:19:45;;;;;;;3.97;3.40;;;13.80;1.00;;;;;;4988541;28;20176;-68
2023/10/29 08:22:11;;;;;;;3.40;2.70;;;13.90;1.00;;;;;;4973463;28;20430;-68
2023/10/29 08:24:37;;;;;;;4.57;3.23;;;14.10;1.00;;;;;;4989204;28;20590;-69
2023/10/29 08:27:03;;;;;;;7.90;3.23;;;14.40;1.00;;;;;;4974185;28;20249;-68
2023/10/29 08:29:29;;;;;;;8.87;4.17;;;14.50;1.00;;;;;;4973902;28;20228;-68
2023/10/29 08:31:54;;;;;;;4.17;3.27;;;14.50;1.00;;;;;;4988996;28;20455;-68
2023/10/29 08:34:21;;;;;;;3.07;1.70;;;14.30;1.00;;;;;;4974917;28;20181;-68
2023/10/29 08:36:46;;;;;;;3.00;2.30;;;14.30;1.00;;;;;;4974525;28;20244;-68
2023/10/29 08:39:14;;;;;;;2.53;1.60;;;14.50;1.00;;;;;;4973934;28;20487;-68
2023/10/29 08:41:39;;;;;;;3.07;1.97;;;14.40;1.00;;;;;;4973802;28;20173;-69
2023/10/29 08:44:05;;;;;;;3.70;1.70;;;14.30;1.00;;;;;;4974207;28;20840;-68
2023/10/29 08:46:30;;;;;;;3.40;2.43;;;14.60;1.00;;;;;;4973528;28;20185;-69
2023/10/29 08:48:56;;;;;;;3.37;2.13;;;14.80;1.00;;;;;;4973379;28;20968;-68
2023/10/29 08:51:21;;;;;;;3.03;2.30;;;15.20;1.00;;;;;;4973013;28;20170;-69
2023/10/29 08:53:47;;;;;;;2.90;2.27;;;15.50;1.00;;;;;;4973246;28;20248;-68
2023/10/29 08:56:14;;;;;;;3.40;2.23;;;15.60;1.00;;;;;;4973471;28;20657;-68
2023/10/29 08:58:40;;;;;;;2.47;1.93;;;;;;;;;;4973144;28;20190;-68
2023/10/29 09:01:06;;;;;;;4.77;2.20;;;;;;;;;;4972781;28;20397;-69
2023/10/29 09:03:32;;;;;;;3.40;2.43;;;;;;;;;;4973064;28;20413;-68
2023/10/29 09:06:03;;;;;;;5.03;2.60;;;;;;;;;;4973093;28;20749;-69
2023/10/29 09:08:29;;;;;;;2.93;2.10;;;;;;;;;;4972765;28;20488;-69
2023/10/29 09:10:55;;;;;;;3.70;2.67;;;;;;;;;;4972748;28;20897;-69
2023/10/29 09:13:23;;;;;;;4.73;2.33;;;;;;;;;;4988065;28;20464;-68
2023/10/29 09:15:49;;;;;;;4.80;2.90;;;;;;;;;;4973147;28;20443;-69
2023/10/29 09:18:16;;;;;;;3.03;2.10;;;;;;;;;;4972853;28;20448;-68
2023/10/29 09:20:46;;;;;;;3.53;2.13;;;;;;;;;;4972666;28;20914;-69
2023/10/29 09:23:12;;;;;;;2.60;2.00;;;;;;;;;;4987844;28;20844;-69
2023/10/29 09:25:38;;;;;;;2.80;2.20;;;;;;;;;;4987850;28;20416;-68
2023/10/29 09:28:05;;;;;;;6.20;2.57;;;;;;;;;;4987590;28;20491;-69
2023/10/29 09:30:31;;;;;;;3.33;2.60;;;;;;;;;;4972635;28;20419;-68
2023/10/29 09:32:58;;;;;;;4.47;2.33;;;;;;;;;;4972957;28;20980;-69
2023/10/29 09:35:24;;;;;;;3.33;2.40;;;;;;;;;;4976755;28;20416;-69
2023/10/29 09:37:50;;;;;;;3.50;2.70;;;;;;;;;;4976915;28;20632;-68
2023/10/29 09:40:18;;;;;;;3.90;2.50;;;;;;;;;;4976604;28;20532;-69
2023/10/29 09:42:49;;;;;;;3.53;2.50;;;;;;;;;;4976977;28;20551;-69
2023/10/29 09:45:18;;;;;;;3.07;2.20;;;;;;;;;;4976987;28;20871;-69
2023/10/29 09:47:44;;;;;;;6.77;2.80;;;;;;;;;;4977029;28;20906;-68
2023/10/29 09:50:11;;;;;;;3.10;2.73;;;;;;;;;;4977142;28;20420;-69
2023/10/29 09:52:36;;;;;;;5.63;2.47;;;17.60;1.00;;;;;;4977276;28;20456;-68
2023/10/29 09:55:04;;;;;;;3.20;2.13;;;17.40;1.00;;;;;;4991652;28;20491;-68
2023/10/29 09:57:31;;;;;;;4.67;2.10;;;17.10;1.00;;;;;;4991738;28;20637;-69
2023/10/29 09:59:56;;;;;;;3.60;1.70;;;17.10;1.00;;;;;;4976319;28;20413;-69
2023/10/29 10:02:23;;;;;;;4.90;2.10;;;17.10;1.00;;;;;;4976418;28;20777;-69
2023/10/29 10:04:50;;;;;;;1.90;1.50;;;17.20;1.00;;;;;;4976423;28;20232;-68
2023/10/29 10:07:16;;;;;;;2.50;1.83;;;17.30;1.00;;;;;;4976258;28;20437;-69
2023/10/29 10:09:52;;;;;;;3.50;2.10;;;17.40;1.00;;;;;;4976038;28;20782;-68
2023/10/29 10:12:18;;;;;;;3.10;2.00;;;17.60;1.00;;;;;;4976267;28;20204;-69
2023/10/29 10:14:44;;;;;;;2.13;1.93;;;17.90;1.00;;;;;;4976844;28;20421;-69
2023/10/29 10:17:10;;;;;;;2.80;2.23;;;18.20;1.00;;;;;;4976116;28;20239;-69
2023/10/29 10:19:36;;;;;;;5.33;2.00;;;18.50;1.00;;;;;;4975935;28;20177;-68
2023/10/29 10:22:03;;;;;;;3.03;2.17;;;18.90;1.00;;;;;;4991125;28;20930;-69
2023/10/29 10:24:38;;;;;;;2.70;2.07;;;19.10;1.00;;;;;;4976056;28;20416;-70
2023/10/29 10:27:04;;;;;;;2.40;2.20;;;19.40;1.00;;;;;;4976040;28;20435;-69
2023/10/29 10:29:33;;;;;;;2.73;2.53;;;19.70;1.00;;;;;;4975425;28;20417;-68
2023/10/29 10:32:03;;;;;;;2.73;2.47;;;19.80;1.00;;;;;;4975748;28;20448;-69
2023/10/29 10:34:31;;;;;;;2.40;2.00;;;20.00;1.00;;;;;;4975920;28;20412;-69
2023/10/29 10:37:01;;;;;;;4.40;2.00;;;20.10;1.00;;;;;;4975669;28;20428;-69
2023/10/29 10:39:33;;;;;;;2.67;2.13;;;20.30;1.00;;;;;;4975585;28;20566;-69
2023/10/29 10:42:03;;;;;;;2.50;2.30;;;20.40;1.00;;;;;;4975609;28;20420;-69
2023/10/29 10:44:30;;;;;;;2.40;2.20;;;20.70;1.00;;;;;;4975207;28;20633;-68
2023/10/29 10:47:00;;;;;;;2.30;2.10;;;20.80;1.00;;;;;;4975682;28;20452;-69
2023/10/29 10:49:26;;;;;;;3.37;2.50;;;20.70;1.00;;;;;;4975307;28;20444;-69
2023/10/29 10:51:58;;;;;;;2.40;2.20;;;21.00;1.00;;;;;;4975380;28;20470;-69
2023/10/29 10:54:25;;;;;;;2.67;2.40;;;21.10;1.00;;;;;;4975432;28;20511;-69
2023/10/29 10:56:52;;;;;;;2.80;2.60;;;21.20;1.00;;;;;;4975609;28;20825;-69
2023/10/29 10:59:19;;;;;;;2.87;2.50;;;21.20;1.00;;;;;;4990281;28;20439;-69
2023/10/29 11:01:45;;;;;;;2.90;2.70;;;21.30;1.00;;;;;;4975167;28;20779;-69
2023/10/29 11:04:11;;;;;;;2.87;2.67;;;21.50;1.00;;;;;;4975821;28;20405;-69
2023/10/29 11:06:39;;;;;;;3.23;2.93;;;21.40;1.00;;;;;;4975210;28;20413;-69
2023/10/29 11:09:12;;;;;;;2.90;2.70;;;21.30;1.00;;;;;;4974870;28;20698;-69
2023/10/29 11:11:54;;;;;;;3.73;2.60;;;21.40;1.00;;;;;;4974960;28;20409;-69
2023/10/29 11:14:21;;;;;;;3.00;2.70;;;21.30;1.00;;;;;;4975184;28;20878;-69
2023/10/29 11:16:57;;;;;;;4.50;3.10;;;21.10;1.00;;;;;;4975031;28;20499;-69
2023/10/29 11:19:44;;;;;;;2.83;2.63;;;21.20;1.00;;;;;;4974666;28;20425;-68
2023/10/29 11:22:15;;;;;;;3.00;2.80;;;21.40;1.00;;;;;;4974867;28;20425;-68
2023/10/29 11:24:41;;;;;;;4.30;3.80;;;21.50;1.00;;;;;;4974857;28;20467;-68
2023/10/29 11:27:33;;;;;;;4.53;3.00;;;21.50;1.00;;;;;;4974660;28;20428;-67
2023/10/29 11:30:19;;;;;;;3.07;2.80;;;21.30;1.00;;;;;;4974429;28;20209;-68
2023/10/29 11:33:05;;;;;;;3.47;3.17;;;21.20;1.00;;;;;;4974805;28;20464;-68
2023/10/29 11:35:32;;;;;;;2.60;2.40;;;21.20;1.00;;;;;;4989277;28;20445;-68
2023/10/29 11:38:00;;;;;;;3.90;2.47;;;21.10;1.00;;;;;;4989341;28;20445;-68
2023/10/29 11:40:25;;;;;;;3.00;2.70;;;21.00;1.00;;;;;;4989137;28;20447;-68
2023/10/29 11:42:55;;;;;;;4.33;3.20;;;21.00;1.00;;;;;;4974424;28;20421;-68
2023/10/29 11:45:31;;;;;;;4.37;3.10;;;21.10;1.00;;;;;;4974563;28;20181;-68
2023/10/29 11:48:06;;;;;;;2.97;2.30;;;21.40;1.00;;;;;;4974372;28;20440;-69
2023/10/29 11:50:32;;;;;;;3.40;2.40;;;21.40;1.00;;;;;;4973958;28;20425;-68
2023/10/29 11:52:57;;;;;;;3.10;2.90;;;21.30;1.00;;;;;;4974220;28;20532;-68
2023/10/29 11:55:27;;;;;;;2.97;2.77;;;21.20;1.00;;;;;;4973963;28;20512;-68
2023/10/29 11:57:54;;;;;;;4.70;3.10;;;21.30;1.00;;;;;;4988528;28;20264;-68
2023/10/29 12:00:21;;;;;;;3.70;2.57;;;21.50;1.00;;;;;;4973877;28;20856;-68
2023/10/29 12:02:47;;;;;;;4.20;3.17;;;21.50;1.00;;;;;;4988988;28;20428;-69
2023/10/29 12:05:15;;;;;;;3.23;3.03;;;21.40;1.00;;;;;;4974538;28;20989;-69
2023/10/29 12:07:40;;;;;;;2.90;2.60;;;21.60;1.00;;;;;;4973917;28;20452;-68
2023/10/29 12:10:06;;;;;;;3.67;3.27;;;21.60;1.00;;;;;;4988885;28;20475;-68
2023/10/29 12:12:32;;;;;;;4.00;3.43;;;21.80;1.00;;;;;;4973915;28;20251;-69
2023/10/29 12:14:58;;;;;;;5.27;3.67;;;22.00;1.00;;;;;;4973902;28;20193;-68
2023/10/29 12:17:24;;;;;;;3.33;3.10;;;21.70;1.00;;;;;;4973774;28;20436;-68
2023/10/29 12:19:50;;;;;;;4.23;3.20;;;21.80;1.00;;;;;;4973532;28;20178;-70
2023/10/29 12:22:22;;;;;;;4.37;2.83;;;21.60;1.00;;;;;;4973865;28;20423;-69
2023/10/29 12:24:51;;;;;;;3.13;2.83;;;21.70;1.00;;;;;;4973705;28;20185;-68
2023/10/29 12:27:18;;;;;;;5.00;3.33;;;21.80;1.00;;;;;;4973586;28;20475;-68
2023/10/29 12:29:44;;;;;;;2.70;2.50;;;21.70;1.00;;;;;;4973675;28;20879;-68
2023/10/29 12:32:22;;;;;;;3.87;2.90;;;21.90;1.00;;;;;;4973409;28;20599;-69
2023/10/29 12:34:52;;;;;;;3.37;2.80;;;22.00;1.00;;;;;;4973637;28;20440;-69
2023/10/29 12:37:31;;;;;;;3.10;2.90;;;21.70;1.00;;;;;;4988336;28;20503;-69
2023/10/29 12:39:59;;;;;;;2.80;2.60;;;21.60;1.00;;;;;;4973132;28;20416;-69
2023/10/29 12:42:47;;;;;;;2.73;2.53;;;21.60;1.00;;;;;;4973389;28;20428;-68
2023/10/29 12:45:22;;;;;;;3.63;3.33;;;21.70;1.00;;;;;;4973462;28;20428;-68
2023/10/29 12:47:48;;;;;;;3.00;2.80;;;21.60;1.00;;;;;;4973320;28;20468;-68
2023/10/29 12:50:14;;;;;;;3.13;2.83;;;21.50;1.00;;;;;;4973036;28;20455;-69
2023/10/29 12:52:42;;;;;;;4.00;3.27;;;21.40;1.00;;;;;;4973166;28;20205;-68
2023/10/29 12:55:09;;;;;;;2.70;2.50;;;21.30;1.00;;;;;;4988038;28;20229;-68
2023/10/29 12:57:35;;;;;;;2.87;2.67;;;21.10;1.00;;;;;;4973085;28;20452;-69
2023/10/29 13:00:00;;;;;;;2.77;2.30;;;21.10;1.00;;;;;;4973128;28;20185;-69